Kissimmee Gateway Airport
KISM : now visible

Airfield :











YOU CAN JOIN US ON...

 
LOGIN :

Register | Disclaimer

   EN    FR    IT 

 









Legend :    VFR   Marginal VFR   IFR   Intensive IFR   Very Intensive IFR
Visi :
Ceiling :
>= 8 km
>= 3000ft
5 to 8 km
1000 to 3000 ft
1500m to 5 km
500 to 1000 ft
800 to 1500m
200 to 500 ft
< 800m
< 200 ft
Symbols :   Thunderstorms  Fog  Heavy snow  Heavy precipitations  Wind > 20 kt






- Airport Elevation : 82 ft


KISM - Kissimmee Gateway

CURRENT METAR :
  • 141856Z 13007KT 10SM SCT043 34/24 A2999 RMK AO2 SLP153 T03390239

EXPIRED METARs :
  • 141756Z VRB04KT 10SM FEW044 33/24 A3001 RMK AO2 SLP162 T03280239 10339 20267 58009
  • 141656Z VRB03KT 10SM SCT038 33/24 A3002 RMK AO2 SLP165 T03280239

TAF KISM
Valid from the 14 at 18:00 until the 15 at 18:00 UTC


141739Z 1418/1518 19005KT P6SM FEW035 SCT250
FM141830 20008KT P6SM VCTS SCT035CB SCT080 BKN200
TEMPO 1419/1421 4SM TSRA BKN030CB BKN060
FM150000 17006KT P6SM FEW050 BKN250
FM151500 21006KT P6SM FEW035 SCT250
KZMA FIR / North America



MET'MAP, your aeronautical weather chart ! - Copyright ORBIFLY December 2007 - Disclaimer

ORBIFLY MET'MAP TEAM :

Programming & Development : Alexandra Zaïnal
Concept & original design : Baudouin d'Aumeries
Assistance for programming : Marc-Olivier Méhu
Technical & hardware support : Manuel Goepfert

Contact : metmap@orbifly.com




SOURCES & CREDITS :

   NOAA       Earth
Advisory